createdAt,value
2018-03-25T00:00:35.401Z,42.92
2018-03-25T00:03:03.688Z,40.08
2018-03-25T00:05:31.267Z,46.90
2018-03-25T00:07:58.806Z,43.40
2018-03-25T00:10:26.283Z,45.80
2018-03-25T00:12:53.790Z,44.05
2018-03-25T00:15:22.215Z,41.13
2018-03-25T00:17:51.739Z,46.28
2018-03-25T00:20:19.234Z,43.60
2018-03-25T00:22:46.717Z,46.80
2018-03-25T00:25:14.295Z,46.55
2018-03-25T00:27:41.838Z,50.08
2018-03-25T00:30:09.337Z,46.00
2018-03-25T00:32:36.837Z,51.50
2018-03-25T00:35:05.105Z,46.65
2018-03-25T00:37:33.691Z,48.58
2018-03-25T00:40:02.758Z,43.55
2018-03-25T00:42:30.303Z,49.28
2018-03-25T00:44:57.797Z,51.00
2018-03-25T00:47:26.096Z,51.33
2018-03-25T00:49:54.351Z,48.17
2018-03-25T00:52:22.032Z,50.63
2018-03-25T00:54:50.313Z,56.75
2018-03-25T00:57:17.822Z,53.10
2018-03-25T00:59:45.456Z,51.60
2018-03-25T01:02:14.754Z,48.30
2018-03-25T01:04:42.384Z,48.15
2018-03-25T01:07:09.878Z,49.65
2018-03-25T01:09:37.377Z,51.67
2018-03-25T01:12:04.850Z,50.08
2018-03-25T01:14:33.294Z,52.33
2018-03-25T01:17:00.786Z,55.55
2018-03-25T01:19:28.466Z,51.80
2018-03-25T01:21:56.027Z,55.25
2018-03-25T01:24:24.282Z,47.67
2018-03-25T01:26:52.546Z,53.70
2018-03-25T01:29:20.135Z,52.62
2018-03-25T01:31:47.653Z,53.65
2018-03-25T01:34:15.144Z,54.53
2018-03-25T01:36:43.530Z,51.40
2018-03-25T01:39:11.782Z,53.38
2018-03-25T01:41:39.299Z,58.60
2018-03-25T01:44:07.021Z,55.78
2018-03-25T01:46:34.623Z,57.38
2018-03-25T01:49:02.135Z,54.38
2018-03-25T01:51:30.405Z,61.08
2018-03-25T01:53:57.890Z,56.47
2018-03-25T01:56:25.395Z,58.72
2018-03-25T01:58:52.877Z,54.60
2018-03-25T02:01:20.538Z,54.17
2018-03-25T02:03:48.043Z,58.90
2018-03-25T02:06:15.526Z,54.45
2018-03-25T02:08:43.008Z,55.85
2018-03-25T02:11:10.530Z,55.67
2018-03-25T02:13:38.018Z,63.58
2018-03-25T02:16:05.498Z,59.63
2018-03-25T02:18:33.079Z,57.53
2018-03-25T02:21:00.566Z,59.78
2018-03-25T02:23:28.150Z,68.43
2018-03-25T02:25:55.696Z,60.33
2018-03-25T02:28:23.174Z,57.88
2018-03-25T02:30:50.658Z,57.80
2018-03-25T02:33:18.928Z,57.60
2018-03-25T02:35:47.203Z,58.72
2018-03-25T02:38:17.471Z,60.42
2018-03-25T02:40:44.986Z,62.00
2018-03-25T02:43:14.354Z,62.70
2018-03-25T02:45:41.842Z,61.00
2018-03-25T02:48:10.098Z,63.90
2018-03-25T02:50:38.005Z,62.95
2018-03-25T02:53:05.674Z,70.32
2018-03-25T02:55:34.013Z,61.72
2018-03-25T02:58:01.503Z,69.00
2018-03-25T03:00:29.743Z,64.85
2018-03-25T03:02:57.246Z,67.03
2018-03-25T03:05:24.851Z,63.25
2018-03-25T03:07:52.338Z,67.35
2018-03-25T03:10:20.739Z,70.78
2018-03-25T03:12:48.229Z,69.45
2018-03-25T03:15:15.714Z,67.37
2018-03-25T03:17:43.204Z,66.18
2018-03-25T03:20:11.563Z,65.37
2018-03-25T03:22:39.168Z,69.45
2018-03-25T03:25:06.799Z,71.00
2018-03-25T03:27:34.366Z,69.45
2018-03-25T03:30:01.847Z,71.82
2018-03-25T03:32:29.334Z,66.80
2018-03-25T03:34:56.836Z,70.22
2018-03-25T03:37:24.498Z,78.25
2018-03-25T03:39:52.250Z,72.53
2018-03-25T03:42:19.804Z,75.32
2018-03-25T03:44:47.283Z,64.60
2018-03-25T03:47:16.624Z,64.80
2018-03-25T03:49:44.201Z,70.95
2018-03-25T03:52:11.680Z,73.70
2018-03-25T03:54:39.158Z,70.62
2018-03-25T03:57:06.686Z,78.90
2018-03-25T03:59:34.173Z,75.12
2018-03-25T04:02:01.715Z,70.03
2018-03-25T04:04:29.211Z,75.75
2018-03-25T04:06:56.692Z,69.62
2018-03-25T04:09:24.174Z,73.97
2018-03-25T04:11:51.666Z,69.28
2018-03-25T04:14:19.259Z,71.12
2018-03-25T04:16:46.742Z,77.75
2018-03-25T04:19:14.436Z,77.75
2018-03-25T04:21:41.934Z,71.68
2018-03-25T04:24:09.422Z,71.85
2018-03-25T04:26:37.101Z,73.37
2018-03-25T04:29:05.493Z,77.10
2018-03-25T04:31:34.894Z,70.20
2018-03-25T04:34:02.440Z,76.62
2018-03-25T04:36:29.954Z,79.70
2018-03-25T04:38:57.492Z,74.37
2018-03-25T04:41:25.022Z,76.47
2018-03-25T04:43:52.586Z,72.00
2018-03-25T04:46:20.846Z,80.40
2018-03-25T04:48:48.334Z,67.80
2018-03-25T04:51:16.573Z,72.03
2018-03-25T04:53:44.062Z,80.93
2018-03-25T04:56:12.392Z,74.70
2018-03-25T04:58:39.870Z,70.90
2018-03-25T05:01:07.394Z,77.93
2018-03-25T05:03:35.746Z,76.85
2018-03-25T05:06:03.237Z,68.93
2018-03-25T05:08:31.721Z,74.95
2018-03-25T05:10:59.361Z,79.43
2018-03-25T05:13:26.878Z,74.95
2018-03-25T05:15:54.370Z,79.20
2018-03-25T05:18:21.851Z,80.20
2018-03-25T05:20:49.334Z,80.43
2018-03-25T05:23:17.769Z,89.37
2018-03-25T05:25:45.271Z,81.60
2018-03-25T05:28:12.750Z,85.90
2018-03-25T05:30:40.282Z,86.93
2018-03-25T05:33:07.780Z,85.95
2018-03-25T05:35:36.030Z,78.57
2018-03-25T05:38:03.522Z,80.38
2018-03-25T05:40:33.259Z,89.62
2018-03-25T05:43:00.738Z,81.65
2018-03-25T05:45:28.946Z,82.28
2018-03-25T05:47:56.446Z,83.60
2018-03-25T05:50:23.935Z,86.68
2018-03-25T05:52:51.441Z,86.40
2018-03-25T05:55:18.931Z,86.05
2018-03-25T05:57:46.654Z,87.60
2018-03-25T06:00:15.044Z,82.95
2018-03-25T06:02:42.635Z,87.22
2018-03-25T06:05:10.187Z,81.63
2018-03-25T06:07:37.813Z,87.88
2018-03-25T06:10:05.421Z,83.72
2018-03-25T06:12:32.917Z,77.78
2018-03-25T06:15:00.411Z,80.30
2018-03-25T06:17:28.258Z,83.57
2018-03-25T06:19:58.280Z,81.75
2018-03-25T06:22:28.142Z,86.35
2018-03-25T06:24:57.317Z,76.90
2018-03-25T06:27:25.902Z,80.72
2018-03-25T06:29:54.290Z,81.87
2018-03-25T06:32:22.966Z,85.00
2018-03-25T06:34:52.024Z,76.53
2018-03-25T06:37:20.299Z,80.85
2018-03-25T06:39:50.363Z,79.87
2018-03-25T06:42:17.913Z,75.72
2018-03-25T06:44:45.412Z,82.00
2018-03-25T06:47:12.895Z,72.87
2018-03-25T06:49:40.477Z,75.47
2018-03-25T06:52:07.986Z,76.22
2018-03-25T06:54:35.474Z,74.85
2018-03-25T06:57:03.719Z,75.65
2018-03-25T06:59:31.242Z,77.82
2018-03-25T07:01:58.724Z,75.57
2018-03-25T07:04:26.210Z,72.53
2018-03-25T07:06:54.501Z,69.80
2018-03-25T07:09:22.900Z,73.07
2018-03-25T07:11:50.460Z,76.75
2018-03-25T07:14:17.978Z,74.43
2018-03-25T07:16:45.536Z,72.05
2018-03-25T07:19:13.106Z,72.65
2018-03-25T07:21:41.986Z,73.32
2018-03-25T07:24:09.466Z,70.00
2018-03-25T07:29:12.194Z,69.05
2018-03-25T07:31:40.035Z,70.90
2018-03-25T07:34:07.599Z,69.25
2018-03-25T07:36:35.233Z,63.33
2018-03-25T07:39:03.494Z,62.72
2018-03-25T07:41:31.766Z,71.30
2018-03-25T07:43:59.269Z,74.07
2018-03-25T07:46:26.813Z,64.05
2018-03-25T07:48:55.088Z,60.20
2018-03-25T07:51:23.382Z,56.30
2018-03-25T07:53:50.871Z,61.37
2018-03-25T07:56:18.381Z,56.70
2018-03-25T07:58:46.652Z,51.60
2018-03-25T08:01:14.215Z,56.67
2018-03-25T08:03:42.591Z,57.05
2018-03-25T08:06:10.766Z,50.30
2018-03-25T08:08:39.047Z,54.00
2018-03-25T08:11:06.548Z,53.47
2018-03-25T08:13:34.215Z,49.63
2018-03-25T08:16:01.811Z,52.28
2018-03-25T08:18:29.316Z,45.63
2018-03-25T08:20:56.818Z,45.73
2018-03-25T08:23:24.314Z,47.83
2018-03-25T08:25:51.842Z,48.00
2018-03-25T08:28:19.478Z,45.83
2018-03-25T08:30:47.092Z,50.07
2018-03-25T08:33:14.608Z,43.83
2018-03-25T08:35:42.125Z,44.77
2018-03-25T08:38:09.839Z,45.00
2018-03-25T08:40:37.802Z,47.53
2018-03-25T08:43:05.378Z,44.87
2018-03-25T08:45:32.885Z,42.73
2018-03-25T08:48:00.472Z,39.47
2018-03-25T08:50:27.979Z,37.43
2018-03-25T08:52:56.631Z,35.73
2018-03-25T08:55:24.179Z,38.50
2018-03-25T08:57:51.852Z,37.90
2018-03-25T09:00:19.454Z,35.43
2018-03-25T09:02:46.948Z,34.63
2018-03-25T09:05:14.490Z,38.33
2018-03-25T09:07:41.982Z,34.33
2018-03-25T09:10:09.464Z,31.93
2018-03-25T09:12:37.736Z,31.70
2018-03-25T09:15:05.994Z,33.93
2018-03-25T09:17:33.534Z,33.47
2018-03-25T09:20:01.059Z,31.27
2018-03-25T09:22:29.371Z,30.37
2018-03-25T09:24:56.899Z,28.00
2018-03-25T09:27:24.506Z,30.97
2018-03-25T09:29:52.043Z,34.90
2018-03-25T09:32:19.581Z,30.67
2018-03-25T09:34:47.081Z,29.57
2018-03-25T09:37:15.849Z,29.23
2018-03-25T09:39:43.406Z,28.13
2018-03-25T09:42:10.994Z,26.30
2018-03-25T09:44:39.302Z,32.57
2018-03-25T09:47:07.647Z,28.03
2018-03-25T09:49:35.236Z,30.00
2018-03-25T09:52:03.504Z,32.80
2018-03-25T09:54:31.146Z,31.17
2018-03-25T09:56:58.774Z,30.50
2018-03-25T09:59:26.395Z,27.03
2018-03-25T10:02:00.467Z,30.70
2018-03-25T10:04:27.970Z,30.37
2018-03-25T10:06:56.219Z,32.23
2018-03-25T10:09:24.507Z,30.27
2018-03-25T10:11:52.798Z,30.17
2018-03-25T10:14:21.093Z,31.37
2018-03-25T10:16:48.633Z,36.30
2018-03-25T10:19:16.107Z,35.10
2018-03-25T10:21:43.630Z,32.40
2018-03-25T10:24:11.114Z,33.20
2018-03-25T10:26:38.638Z,33.87
2018-03-25T10:29:06.118Z,34.53
2018-03-25T10:31:34.413Z,37.63
2018-03-25T10:34:01.904Z,31.93
2018-03-25T10:36:29.437Z,30.13
2018-03-25T10:38:56.964Z,33.57
2018-03-25T10:41:25.217Z,30.83
2018-03-25T10:43:52.726Z,34.30
2018-03-25T10:46:20.257Z,34.47
2018-03-25T10:48:48.523Z,32.77
2018-03-25T10:51:16.029Z,34.83
2018-03-25T10:53:43.654Z,33.40
2018-03-25T10:56:11.926Z,32.20
2018-03-25T10:58:40.193Z,30.57
2018-03-25T11:01:07.731Z,34.47
2018-03-25T11:03:35.218Z,37.03
2018-03-25T11:06:03.499Z,32.90
2018-03-25T11:08:31.811Z,30.20
2018-03-25T11:10:59.330Z,33.00
2018-03-25T11:13:27.605Z,32.57
2018-03-25T11:15:55.101Z,33.07
2018-03-25T11:18:22.603Z,33.30
2018-03-25T11:20:50.190Z,36.87
2018-03-25T11:23:18.437Z,34.57
2018-03-25T11:25:45.930Z,36.03
2018-03-25T11:28:14.174Z,34.77
2018-03-25T11:30:41.682Z,38.10
2018-03-25T11:33:09.195Z,39.83
2018-03-25T11:35:36.894Z,36.00
2018-03-25T11:38:04.413Z,34.80
2018-03-25T11:40:31.904Z,37.90
2018-03-25T11:43:00.150Z,38.37
2018-03-25T11:45:27.642Z,35.80
2018-03-25T11:47:55.887Z,38.40
2018-03-25T11:50:24.182Z,37.97
2018-03-25T11:52:52.492Z,38.57
2018-03-25T11:55:20.005Z,38.37
2018-03-25T11:57:47.498Z,36.77
2018-03-25T12:00:14.994Z,36.80
2018-03-25T12:02:42.480Z,38.47
2018-03-25T12:05:09.971Z,42.33
2018-03-25T12:07:37.466Z,41.90
2018-03-25T12:10:04.986Z,39.47
2018-03-25T12:12:32.580Z,40.77
2018-03-25T12:15:00.174Z,39.90
2018-03-25T12:17:27.637Z,38.20
2018-03-25T12:19:55.259Z,40.80
2018-03-25T12:22:22.734Z,40.13
2018-03-25T12:24:50.284Z,38.33
2018-03-25T12:27:17.770Z,40.80
2018-03-25T12:29:45.306Z,38.70
2018-03-25T12:32:12.802Z,40.70
2018-03-25T12:34:41.046Z,40.33
2018-03-25T12:37:08.531Z,42.20
2018-03-25T12:39:36.906Z,41.30
2018-03-25T12:42:05.166Z,41.13
2018-03-25T12:44:32.646Z,40.80
2018-03-25T12:47:00.965Z,42.77
2018-03-25T12:49:28.450Z,41.80
2018-03-25T12:51:55.945Z,38.13
2018-03-25T12:54:24.232Z,42.07
2018-03-25T12:56:51.718Z,38.20
2018-03-25T12:59:19.203Z,41.70
2018-03-25T13:01:46.762Z,42.03
2018-03-25T13:04:14.250Z,40.27
2018-03-25T13:06:42.518Z,43.27
2018-03-25T13:09:10.794Z,45.27
2018-03-25T13:11:39.313Z,44.53
2018-03-25T13:14:06.934Z,45.63
2018-03-25T13:16:34.522Z,44.93
2018-03-25T13:19:02.095Z,43.00
2018-03-25T13:21:29.639Z,44.67
2018-03-25T13:23:57.274Z,44.50
2018-03-25T13:26:24.758Z,44.70
2018-03-25T13:28:52.321Z,44.27
2018-03-25T13:31:19.844Z,45.83
2018-03-25T13:33:47.454Z,45.73
2018-03-25T13:36:14.937Z,40.77
2018-03-25T13:38:42.528Z,40.43
2018-03-25T13:41:10.908Z,38.03
2018-03-25T13:43:39.190Z,37.40
2018-03-25T13:46:07.467Z,36.20
2018-03-25T13:48:35.739Z,38.40
2018-03-25T13:51:03.222Z,40.13
2018-03-25T13:53:30.836Z,40.80
2018-03-25T13:55:58.367Z,38.03
2018-03-25T13:58:25.906Z,39.37
2018-03-25T14:00:53.449Z,43.40
2018-03-25T14:03:21.700Z,39.57
2018-03-25T14:05:51.020Z,40.23
2018-03-25T14:08:18.534Z,41.13
2018-03-25T14:10:46.078Z,40.10
2018-03-25T14:13:13.570Z,42.03
2018-03-25T14:15:41.055Z,44.07
2018-03-25T14:18:09.318Z,42.17
2018-03-25T14:20:37.025Z,42.30
2018-03-25T14:23:05.254Z,44.47
2018-03-25T14:25:32.775Z,44.70
2018-03-25T14:28:00.264Z,44.40
2018-03-25T14:30:27.750Z,42.93
2018-03-25T14:32:56.071Z,50.47
2018-03-25T14:35:23.576Z,47.33
2018-03-25T14:37:51.083Z,51.17
2018-03-25T14:40:18.617Z,47.47
2018-03-25T14:42:46.148Z,42.70
2018-03-25T14:45:13.676Z,49.00
2018-03-25T14:47:41.225Z,47.50
2018-03-25T14:50:08.711Z,45.70
2018-03-25T14:52:36.241Z,52.33
2018-03-25T14:55:03.756Z,48.37
2018-03-25T14:57:32.022Z,50.20
2018-03-25T15:00:00.289Z,54.17
2018-03-25T15:02:27.798Z,54.47
2018-03-25T15:04:55.294Z,51.60
2018-03-25T15:07:22.790Z,55.17
2018-03-25T15:09:50.346Z,55.70
2018-03-25T15:12:18.667Z,57.53
2018-03-25T15:14:46.156Z,53.13
2018-03-25T15:17:13.667Z,56.00
2018-03-25T15:19:41.183Z,51.17
2018-03-25T15:22:08.813Z,54.47
2018-03-25T15:24:36.314Z,54.17
2018-03-25T15:27:04.570Z,52.90
2018-03-25T15:29:32.079Z,58.40
2018-03-25T15:31:59.815Z,51.40
2018-03-25T15:34:27.355Z,50.20
2018-03-25T15:36:54.891Z,54.13
2018-03-25T15:39:22.396Z,54.57
2018-03-25T15:41:49.935Z,53.70
2018-03-25T15:44:18.225Z,56.23
2018-03-25T15:46:46.481Z,55.17
2018-03-25T15:49:14.073Z,53.97
2018-03-25T15:51:41.576Z,59.70
2018-03-25T15:54:09.078Z,62.40
2018-03-25T15:56:37.449Z,58.67
2018-03-25T15:59:05.734Z,57.20
2018-03-25T16:01:33.982Z,60.63
2018-03-25T16:04:01.533Z,62.77
2018-03-25T16:06:29.026Z,56.40
2018-03-25T16:08:57.278Z,57.20
2018-03-25T16:11:24.810Z,59.77
2018-03-25T16:16:26.963Z,61.90
2018-03-25T16:18:54.456Z,59.23
2018-03-25T16:21:21.945Z,61.00
2018-03-25T16:23:49.456Z,62.10
2018-03-25T16:26:16.945Z,61.23
2018-03-25T16:28:44.434Z,56.30
2018-03-25T16:31:12.705Z,56.33
2018-03-25T16:33:41.023Z,60.30
2018-03-25T16:36:08.624Z,63.77
2018-03-25T16:38:36.173Z,61.93
2018-03-25T16:41:03.753Z,60.40
2018-03-25T16:43:31.227Z,60.60
2018-03-25T16:45:59.518Z,62.83
2018-03-25T16:48:27.044Z,65.80
2018-03-25T16:50:55.348Z,63.93
2018-03-25T16:53:23.625Z,61.43
2018-03-25T16:55:51.181Z,62.57
2018-03-25T16:58:19.445Z,64.83
2018-03-25T17:00:46.950Z,67.93
2018-03-25T17:03:14.533Z,69.57
2018-03-25T17:05:42.022Z,65.10
2018-03-25T17:08:10.282Z,70.22
2018-03-25T17:10:38.633Z,70.60
2018-03-25T17:13:06.138Z,68.27
2018-03-25T17:15:33.696Z,65.68
2018-03-25T17:18:01.971Z,72.20
2018-03-25T17:20:30.236Z,74.45
2018-03-25T17:22:57.808Z,67.95
2018-03-25T17:25:26.082Z,67.43
2018-03-25T17:27:54.345Z,64.35
2018-03-25T17:30:21.891Z,66.40
2018-03-25T17:32:49.382Z,59.92
2018-03-25T17:35:17.636Z,58.45
2018-03-25T17:37:45.135Z,57.10
2018-03-25T17:40:12.658Z,54.13
2018-03-25T17:42:40.154Z,52.83
2018-03-25T17:45:08.345Z,53.85
2018-03-25T17:47:35.886Z,58.90
2018-03-25T17:50:03.393Z,56.20
2018-03-25T17:52:30.891Z,57.80
2018-03-25T17:54:58.410Z,56.30
2018-03-25T17:57:25.901Z,53.05
2018-03-25T17:59:54.178Z,62.72
2018-03-25T18:02:22.535Z,56.63
2018-03-25T18:04:50.018Z,51.50
2018-03-25T18:07:18.284Z,49.05
2018-03-25T18:09:46.550Z,55.15
2018-03-25T18:12:14.814Z,50.72
2018-03-25T18:14:43.063Z,47.20
2018-03-25T18:17:33.461Z,48.40
2018-03-25T18:19:38.072Z,47.40
2018-03-25T18:22:05.636Z,45.45
2018-03-25T18:24:33.199Z,45.30
2018-03-25T18:27:00.701Z,53.58
2018-03-25T18:29:28.186Z,51.60
2018-03-25T18:31:55.694Z,52.67
2018-03-25T18:34:23.965Z,49.10
2018-03-25T18:36:52.213Z,45.33
2018-03-25T18:39:19.743Z,49.15
2018-03-25T18:41:48.077Z,45.80
2018-03-25T18:44:15.561Z,49.83
2018-03-25T18:46:43.054Z,49.08
2018-03-25T18:49:10.589Z,50.97
2018-03-25T18:51:38.924Z,46.35
2018-03-25T18:54:06.472Z,42.83
2018-03-25T18:56:33.954Z,47.20
2018-03-25T18:59:01.438Z,43.92
2018-03-25T19:01:29.737Z,47.85
2018-03-25T19:03:58.085Z,45.30
2018-03-25T19:06:25.588Z,50.35
2018-03-25T19:08:53.157Z,46.95
2018-03-25T19:11:20.659Z,47.45
2018-03-25T19:13:48.148Z,46.53
2018-03-25T19:16:16.422Z,46.10
2018-03-25T19:18:43.981Z,47.55
2018-03-25T19:21:12.238Z,42.35
2018-03-25T19:23:39.874Z,44.10
2018-03-25T19:26:07.391Z,48.78
2018-03-25T19:28:34.970Z,46.90
2018-03-25T19:31:02.470Z,46.33
2018-03-25T19:33:29.954Z,44.30
2018-03-25T19:35:58.234Z,48.20
2018-03-25T19:38:25.778Z,47.38
2018-03-25T19:40:54.063Z,44.10
2018-03-25T19:43:22.314Z,49.53
2018-03-25T19:45:50.263Z,43.83
2018-03-25T19:48:18.542Z,44.72
2018-03-25T19:50:46.032Z,42.50
2018-03-25T19:53:13.566Z,53.03
2018-03-25T19:55:41.045Z,49.55
2018-03-25T19:58:12.275Z,42.33
2018-03-25T20:00:39.750Z,45.28
2018-03-25T20:03:07.235Z,45.63
2018-03-25T20:05:34.759Z,44.63
2018-03-25T20:08:04.560Z,53.60
2018-03-25T20:10:32.657Z,49.15
2018-03-25T20:13:01.672Z,45.80
2018-03-25T20:15:30.741Z,49.10
2018-03-25T20:17:58.271Z,51.63
2018-03-25T20:20:25.758Z,44.55
2018-03-25T20:22:53.806Z,53.28
2018-03-25T20:25:21.292Z,46.72
2018-03-25T20:27:48.796Z,46.42
2018-03-25T20:30:17.037Z,50.47
2018-03-25T20:32:45.376Z,45.00
2018-03-25T20:35:13.714Z,46.42
2018-03-25T20:37:41.253Z,48.90
2018-03-25T20:40:09.523Z,45.63
2018-03-25T20:42:37.076Z,53.67
2018-03-25T20:45:05.529Z,50.75
2018-03-25T20:47:33.018Z,42.92
2018-03-25T20:50:01.279Z,48.87
2018-03-25T20:52:28.834Z,50.95
2018-03-25T20:54:56.330Z,48.80
2018-03-25T20:57:24.586Z,47.83
2018-03-25T20:59:52.095Z,52.25
2018-03-25T21:02:19.611Z,51.37
2018-03-25T21:04:47.866Z,46.58
2018-03-25T21:07:15.350Z,48.45
2018-03-25T21:09:43.734Z,46.45
2018-03-25T21:12:11.222Z,48.55
2018-03-25T21:14:38.703Z,49.20
2018-03-25T21:17:07.024Z,48.65
2018-03-25T21:19:35.266Z,46.53
2018-03-25T21:22:02.746Z,48.40
2018-03-25T21:24:31.021Z,52.30
2018-03-25T21:26:59.316Z,48.20
2018-03-25T21:29:26.826Z,47.78
2018-03-25T21:31:54.318Z,49.42
2018-03-25T21:34:22.601Z,52.97
2018-03-25T21:36:50.848Z,48.70
2018-03-25T21:39:18.337Z,50.05
2018-03-25T21:41:46.614Z,47.40
2018-03-25T21:44:14.871Z,51.88
2018-03-25T21:46:42.350Z,48.20
2018-03-25T21:49:10.627Z,44.58
2018-03-25T21:51:38.878Z,49.00
2018-03-25T21:54:06.359Z,45.42
2018-03-25T21:56:34.630Z,45.42
2018-03-25T21:59:02.885Z,51.92
2018-03-25T22:01:30.367Z,46.28
2018-03-25T22:03:59.452Z,49.20
2018-03-25T22:06:27.730Z,51.45
2018-03-25T22:08:55.985Z,45.40
2018-03-25T22:11:23.470Z,46.28
2018-03-25T22:13:51.800Z,44.88
2018-03-25T22:16:19.298Z,48.35
2018-03-25T22:18:59.247Z,47.83
2018-03-25T22:21:29.422Z,40.72
2018-03-25T22:23:56.944Z,44.33
2018-03-25T22:26:24.491Z,42.33
2018-03-25T22:28:52.762Z,45.12
2018-03-25T22:31:20.243Z,43.70
2018-03-25T22:33:47.842Z,44.65
2018-03-25T22:36:15.329Z,44.22
2018-03-25T22:38:42.881Z,48.25
2018-03-25T22:41:10.373Z,51.22
2018-03-25T22:43:39.325Z,46.53
2018-03-25T22:46:06.807Z,48.00
2018-03-25T22:48:34.326Z,47.75
2018-03-25T22:51:02.457Z,48.22
2018-03-25T22:53:30.729Z,49.53
2018-03-25T22:55:59.614Z,49.00
2018-03-25T22:58:27.901Z,41.83
2018-03-25T23:00:56.158Z,49.03
2018-03-25T23:03:24.150Z,48.60
2018-03-25T23:05:51.650Z,48.47
2018-03-25T23:08:20.112Z,48.05
2018-03-25T23:10:47.976Z,48.50
2018-03-25T23:13:15.462Z,46.58
2018-03-25T23:15:43.567Z,54.22
2018-03-25T23:18:12.701Z,57.45
2018-03-25T23:20:43.678Z,54.13
2018-03-25T23:23:11.172Z,55.15
2018-03-25T23:25:40.327Z,56.25
2018-03-25T23:28:07.813Z,52.60
2018-03-25T23:30:35.285Z,64.65
2018-03-25T23:33:03.537Z,57.15
2018-03-25T23:35:31.031Z,61.40
2018-03-25T23:37:58.524Z,57.13
2018-03-25T23:40:26.006Z,54.72
2018-03-25T23:42:53.544Z,62.22
2018-03-25T23:45:21.022Z,70.15
2018-03-25T23:47:48.510Z,65.57
2018-03-25T23:50:16.816Z,63.83
2018-03-25T23:52:44.298Z,68.85
2018-03-25T23:55:13.587Z,69.37
2018-03-25T23:57:41.081Z,62.05
